createdAt,value
2017-11-05T00:01:37.379Z,217.93
2017-11-05T00:04:03.608Z,192.60
2017-11-05T00:06:30.036Z,484.63
2017-11-05T00:08:56.659Z,302.87
2017-11-05T00:11:23.099Z,309.47
2017-11-05T00:13:49.741Z,85.80
2017-11-05T00:16:16.230Z,564.27
2017-11-05T00:18:42.676Z,149.23
2017-11-05T00:21:09.120Z,85.40
2017-11-05T00:23:35.514Z,149.73
2017-11-05T00:26:01.751Z,328.73
2017-11-05T00:28:28.353Z,531.50
2017-11-05T00:30:54.636Z,402.27
2017-11-05T00:33:21.075Z,420.67
2017-11-05T00:35:47.520Z,206.50
2017-11-05T00:38:14.058Z,369.13
2017-11-05T00:40:40.307Z,299.33
2017-11-05T00:43:06.574Z,482.80
2017-11-05T00:45:32.985Z,94.63
2017-11-05T00:47:59.600Z,143.53
2017-11-05T00:50:26.252Z,371.53
2017-11-05T00:52:52.885Z,122.83
2017-11-05T00:55:19.125Z,107.47
2017-11-05T00:57:45.373Z,131.97
2017-11-05T01:00:11.682Z,491.93
2017-11-05T01:02:37.929Z,466.13
2017-11-05T01:05:04.175Z,645.53
2017-11-05T01:07:30.763Z,266.73
2017-11-05T01:09:57.313Z,281.60
2017-11-05T01:12:23.845Z,188.73
2017-11-05T01:14:50.344Z,390.60
2017-11-05T01:17:16.778Z,272.20
2017-11-05T01:19:43.245Z,93.57
2017-11-05T01:22:09.528Z,203.47
2017-11-05T01:24:35.916Z,178.10
2017-11-05T01:27:02.143Z,152.83
2017-11-05T01:29:28.413Z,233.00
2017-11-05T01:31:54.880Z,168.47
2017-11-05T01:34:21.394Z,138.23
2017-11-05T01:36:48.081Z,113.03
2017-11-05T01:39:14.503Z,473.47
2017-11-05T01:41:40.921Z,394.80
2017-11-05T01:44:07.583Z,266.47
2017-11-05T01:46:34.223Z,367.10
2017-11-05T01:49:00.677Z,197.33
2017-11-05T01:51:26.954Z,333.43
2017-11-05T01:53:53.323Z,386.57
2017-11-05T01:56:19.559Z,652.73
2017-11-05T01:58:45.928Z,348.10
2017-11-05T02:01:12.187Z,488.53
2017-11-05T02:03:38.443Z,351.07
2017-11-05T02:06:04.711Z,215.77
2017-11-05T02:08:30.965Z,300.03
2017-11-05T02:10:57.201Z,213.77
2017-11-05T02:13:23.503Z,140.83
2017-11-05T02:15:49.748Z,163.00
2017-11-05T02:18:15.986Z,156.47
2017-11-05T02:20:42.269Z,114.73
2017-11-05T02:23:08.490Z,228.00
2017-11-05T02:25:34.731Z,327.52
2017-11-05T02:28:00.992Z,129.63
2017-11-05T02:30:27.215Z,224.10
2017-11-05T02:32:53.456Z,137.60
2017-11-05T02:35:19.721Z,153.85
2017-11-05T02:37:45.960Z,527.27
2017-11-05T02:40:12.213Z,190.50
2017-11-05T02:42:38.486Z,104.53
2017-11-05T02:45:04.724Z,119.57
2017-11-05T02:47:30.971Z,282.37
2017-11-05T02:49:57.268Z,73.97
2017-11-05T02:52:23.505Z,117.03
2017-11-05T02:54:49.732Z,192.43
2017-11-05T02:57:16.024Z,85.57
2017-11-05T02:59:42.264Z,174.97
2017-11-05T03:02:08.490Z,120.97
2017-11-05T03:04:34.755Z,91.67
2017-11-05T03:07:00.986Z,66.30
2017-11-05T03:09:27.230Z,74.37
2017-11-05T03:11:53.515Z,63.60
2017-11-05T03:14:19.756Z,84.97
2017-11-05T03:16:45.982Z,97.87
2017-11-05T03:19:12.252Z,52.17
2017-11-05T03:21:38.493Z,62.03
2017-11-05T03:24:04.712Z,49.20
2017-11-05T03:26:30.997Z,64.00
2017-11-05T03:28:57.230Z,72.17
2017-11-05T03:31:23.452Z,54.47
2017-11-05T03:33:49.733Z,71.23
2017-11-05T03:36:15.951Z,64.70
2017-11-05T03:38:42.190Z,51.03
2017-11-05T03:41:08.493Z,74.67
2017-11-05T03:43:34.834Z,51.90
2017-11-05T03:46:01.327Z,47.77
2017-11-05T03:48:27.869Z,42.30
2017-11-05T03:50:54.208Z,43.60
2017-11-05T03:53:20.442Z,48.10
2017-11-05T03:55:46.712Z,49.53
2017-11-05T03:58:12.922Z,54.00
2017-11-05T04:00:39.152Z,46.03
2017-11-05T04:03:05.430Z,54.77
2017-11-05T04:05:31.655Z,54.03
2017-11-05T04:07:57.907Z,53.90
2017-11-05T04:10:24.177Z,40.50
2017-11-05T04:12:50.425Z,38.07
2017-11-05T05:16:29.852Z,69.80
2017-11-05T05:18:56.102Z,93.00
2017-11-05T05:21:22.461Z,55.97
2017-11-05T05:23:49.104Z,128.20
2017-11-05T05:26:15.344Z,51.60
2017-11-05T05:28:41.581Z,152.07
2017-11-05T05:31:07.856Z,210.73
2017-11-05T05:33:34.096Z,92.17
2017-11-05T05:36:00.331Z,161.97
2017-11-05T05:38:26.681Z,35.70
2017-11-05T05:40:52.907Z,38.47
2017-11-05T05:43:19.152Z,61.80
2017-11-05T05:45:45.432Z,58.43
2017-11-05T05:48:11.657Z,33.40
2017-11-05T05:50:37.891Z,38.57
2017-11-05T05:53:04.192Z,30.80
2017-11-05T05:55:30.418Z,101.63
2017-11-05T05:57:56.660Z,117.68
2017-11-05T06:00:22.930Z,96.18
2017-11-05T06:02:49.175Z,138.93
2017-11-05T06:05:15.421Z,54.70
2017-11-05T06:07:41.696Z,191.30
2017-11-05T06:10:07.929Z,34.83
2017-11-05T06:12:34.169Z,105.40
2017-11-05T06:15:00.457Z,100.03
2017-11-05T06:17:26.715Z,82.70
2017-11-05T06:19:52.959Z,74.00
2017-11-05T06:22:19.230Z,146.67
2017-11-05T06:24:45.455Z,76.10
2017-11-05T06:27:11.682Z,60.77
2017-11-05T06:29:37.962Z,106.63
2017-11-05T06:32:04.194Z,86.37
2017-11-05T06:34:30.423Z,128.63
2017-11-05T06:36:56.713Z,77.97
2017-11-05T06:39:22.942Z,161.20
2017-11-05T06:41:49.180Z,58.37
2017-11-05T06:44:15.655Z,135.97
2017-11-05T06:46:41.897Z,65.67
2017-11-05T06:49:08.145Z,55.63
2017-11-05T06:51:34.437Z,76.60
2017-11-05T06:54:00.660Z,70.80
2017-11-05T06:56:26.887Z,53.23
2017-11-05T06:58:53.191Z,50.53
2017-11-05T07:01:19.423Z,51.67
2017-11-05T07:03:45.664Z,34.93
2017-11-05T07:06:11.930Z,28.43
2017-11-05T07:08:38.169Z,34.50
2017-11-05T07:11:04.394Z,32.53
2017-11-05T07:13:30.676Z,31.13
2017-11-05T07:15:57.069Z,23.00
2017-11-05T07:18:23.278Z,31.00
2017-11-05T07:20:49.550Z,29.37
2017-11-05T07:23:15.768Z,22.10
2017-11-05T07:25:42.011Z,21.47
2017-11-05T07:28:08.295Z,18.90
2017-11-05T07:30:34.529Z,18.13
2017-11-05T07:33:00.779Z,15.93
2017-11-05T07:35:27.031Z,17.87
2017-11-05T07:37:53.260Z,12.00
2017-11-05T07:40:19.481Z,14.57
2017-11-05T07:42:45.747Z,8.47
2017-11-05T07:45:11.957Z,7.93
2017-11-05T07:47:38.237Z,9.50
2017-11-05T07:50:04.519Z,8.20
2017-11-05T07:52:30.756Z,8.03
2017-11-05T07:54:56.985Z,9.17
2017-11-05T07:57:23.260Z,9.80
2017-11-05T07:59:49.495Z,12.20
2017-11-05T08:02:15.739Z,8.47
2017-11-05T08:04:41.997Z,9.23
2017-11-05T08:07:08.277Z,11.10
2017-11-05T08:09:34.506Z,13.23
2017-11-05T08:12:00.757Z,13.83
2017-11-05T08:14:26.993Z,9.47
2017-11-05T08:16:53.229Z,12.43
2017-11-05T08:19:19.486Z,12.20
2017-11-05T08:21:45.701Z,10.47
2017-11-05T08:24:11.942Z,21.27
2017-11-05T08:26:38.219Z,11.40
2017-11-05T08:29:04.446Z,13.00
2017-11-05T08:31:30.685Z,11.50
2017-11-05T08:33:56.948Z,10.23
2017-11-05T08:36:23.174Z,15.40
2017-11-05T08:38:49.410Z,12.17
2017-11-05T08:41:15.693Z,11.67
2017-11-05T08:43:41.926Z,9.77
2017-11-05T08:46:08.135Z,8.53
2017-11-05T08:48:34.401Z,9.40
2017-11-05T08:51:00.630Z,13.47
2017-11-05T08:53:26.868Z,14.93
2017-11-05T08:55:53.138Z,18.87
2017-11-05T08:58:19.355Z,18.57
2017-11-05T09:00:45.596Z,17.03
2017-11-05T09:03:11.942Z,15.50
2017-11-05T09:05:38.160Z,17.90
2017-11-05T09:08:04.378Z,16.33
2017-11-05T09:10:30.655Z,16.43
2017-11-05T09:12:56.903Z,20.13
2017-11-05T09:15:23.152Z,19.57
2017-11-05T09:17:49.435Z,28.33
2017-11-05T09:20:15.676Z,18.33
2017-11-05T09:22:41.917Z,28.53
2017-11-05T09:25:08.212Z,17.57
2017-11-05T09:27:34.455Z,15.70
2017-11-05T09:30:00.966Z,16.57
2017-11-05T09:32:27.478Z,21.73
2017-11-05T09:34:53.696Z,20.30
2017-11-05T09:37:19.959Z,14.43
2017-11-05T09:39:46.456Z,8.67
2017-11-05T09:42:12.667Z,5.87
2017-11-05T09:44:39.129Z,4.27
2017-11-05T09:47:05.655Z,5.07
2017-11-05T09:49:32.094Z,3.40
2017-11-05T09:51:58.515Z,4.40
2017-11-05T09:54:24.972Z,5.63
2017-11-05T09:56:51.375Z,2.60
2017-11-05T09:59:17.646Z,5.70
2017-11-05T10:01:44.285Z,24.10
2017-11-05T10:04:10.700Z,5.73
2017-11-05T10:06:37.142Z,10.97
2017-11-05T10:09:03.423Z,8.07
2017-11-05T10:11:29.646Z,5.37
2017-11-05T10:13:55.887Z,3.60
2017-11-05T10:16:22.311Z,4.80
2017-11-05T10:18:48.905Z,1.80
2017-11-05T10:21:15.150Z,2.90
2017-11-05T10:23:41.583Z,1.27
2017-11-05T10:26:08.018Z,2.13
2017-11-05T10:28:34.479Z,1.80
2017-11-05T10:31:00.884Z,2.07
2017-11-05T10:33:27.511Z,1.60
2017-11-05T10:35:54.160Z,2.43
2017-11-05T10:38:20.785Z,1.80
2017-11-05T10:40:47.232Z,2.80
2017-11-05T10:43:13.872Z,2.70
2017-11-05T10:45:40.361Z,2.00
2017-11-05T10:48:06.811Z,7.80
2017-11-05T10:50:33.327Z,9.57
2017-11-05T10:53:00.014Z,5.13
2017-11-05T10:55:26.636Z,2.20
2017-11-05T10:57:52.879Z,2.57
2017-11-05T11:00:19.329Z,1.50
2017-11-05T11:02:45.939Z,4.90
2017-11-05T11:05:12.171Z,5.37
2017-11-05T11:07:38.618Z,1.90
2017-11-05T11:10:05.257Z,2.43
2017-11-05T11:12:31.882Z,6.53
2017-11-05T11:14:58.343Z,3.87
2017-11-05T11:17:24.770Z,5.00
2017-11-05T11:19:51.401Z,2.10
2017-11-05T11:22:17.901Z,1.77
2017-11-05T11:24:44.266Z,3.53
2017-11-05T11:27:10.715Z,7.20
2017-11-05T11:29:37.134Z,5.00
2017-11-05T11:32:03.420Z,6.07
2017-11-05T11:34:29.961Z,4.63
2017-11-05T11:36:56.380Z,2.33
2017-11-05T11:39:22.657Z,2.53
2017-11-05T11:41:49.139Z,2.43
2017-11-05T11:44:15.580Z,5.03
2017-11-05T11:46:42.022Z,2.43
2017-11-05T11:49:08.465Z,4.10
2017-11-05T11:51:34.829Z,2.97
2017-11-05T11:54:01.123Z,4.53
2017-11-05T11:56:27.640Z,2.50
2017-11-05T11:58:53.875Z,4.17
2017-11-05T12:01:20.123Z,2.50
2017-11-05T12:03:46.395Z,4.10
2017-11-05T12:06:12.659Z,2.53
2017-11-05T12:08:38.894Z,2.50
2017-11-05T12:11:05.152Z,2.33
2017-11-05T12:13:31.396Z,2.13
2017-11-05T12:15:57.605Z,5.33
2017-11-05T12:18:23.860Z,3.20
2017-11-05T12:20:50.136Z,8.57
2017-11-05T12:23:16.482Z,2.50
2017-11-05T12:25:42.898Z,13.27
2017-11-05T12:28:09.156Z,7.27
2017-11-05T12:30:35.376Z,5.70
2017-11-05T12:33:01.588Z,9.40
2017-11-05T12:35:27.863Z,3.57
2017-11-05T12:37:54.107Z,2.97
2017-11-05T12:40:20.327Z,3.00
2017-11-05T12:42:46.620Z,3.97
2017-11-05T12:45:12.843Z,3.93
2017-11-05T12:47:39.046Z,3.10
2017-11-05T12:50:05.313Z,3.70
2017-11-05T12:52:31.511Z,2.90
2017-11-05T12:54:57.723Z,3.13
2017-11-05T12:57:23.997Z,17.23
2017-11-05T12:59:50.221Z,3.57
2017-11-05T13:02:16.449Z,6.03
2017-11-05T13:04:42.728Z,4.13
2017-11-05T13:07:08.949Z,4.43
2017-11-05T13:09:35.190Z,3.07
2017-11-05T13:12:01.605Z,2.90
2017-11-05T13:14:27.825Z,3.90
2017-11-05T13:16:54.265Z,2.80
2017-11-05T13:19:20.545Z,2.90
2017-11-05T13:21:46.777Z,6.80
2017-11-05T13:24:13.020Z,6.83
2017-11-05T13:26:39.287Z,9.30
2017-11-05T13:29:05.534Z,4.57
2017-11-05T13:31:32.104Z,5.90
2017-11-05T13:33:58.448Z,4.03
2017-11-05T13:36:24.705Z,4.70
2017-11-05T13:38:50.957Z,5.43
2017-11-05T13:41:17.230Z,4.13
2017-11-05T13:43:43.479Z,3.30
2017-11-05T13:46:10.115Z,4.80
2017-11-05T13:48:36.396Z,6.07
2017-11-05T13:51:02.625Z,5.50
2017-11-05T13:53:28.869Z,5.83
2017-11-05T13:55:55.207Z,5.83
2017-11-05T13:58:21.499Z,5.40
2017-11-05T14:00:47.745Z,4.83
2017-11-05T14:03:13.952Z,6.57
2017-11-05T14:05:40.221Z,5.50
2017-11-05T14:08:06.635Z,5.80
2017-11-05T14:10:32.904Z,10.70
2017-11-05T14:12:59.186Z,11.63
2017-11-05T14:15:25.433Z,11.70
2017-11-05T14:17:51.670Z,6.30
2017-11-05T14:20:17.948Z,11.80
2017-11-05T14:22:44.189Z,6.57
2017-11-05T14:25:10.430Z,9.00
2017-11-05T14:27:36.777Z,12.00
2017-11-05T14:30:03.025Z,7.03
2017-11-05T14:32:29.282Z,30.07
2017-11-05T14:34:55.553Z,9.63
2017-11-05T14:37:21.780Z,7.00
2017-11-05T14:39:47.983Z,7.57
2017-11-05T14:42:14.217Z,7.77
2017-11-05T14:44:40.453Z,17.23
2017-11-05T14:47:06.705Z,6.97
2017-11-05T14:49:32.986Z,14.20
2017-11-05T14:51:59.216Z,37.60
2017-11-05T14:54:25.427Z,9.30
2017-11-05T14:56:51.672Z,26.57
2017-11-05T14:59:17.912Z,21.33
2017-11-05T15:01:44.138Z,22.03
2017-11-05T15:04:10.401Z,19.13
2017-11-05T15:06:36.640Z,23.30
2017-11-05T15:09:02.889Z,32.77
2017-11-05T15:11:29.161Z,17.47
2017-11-05T15:13:55.388Z,40.57
2017-11-05T15:16:21.622Z,20.70
2017-11-05T15:18:47.903Z,20.27
2017-11-05T15:21:14.133Z,31.20
2017-11-05T15:23:40.362Z,26.10
2017-11-05T15:26:06.680Z,37.07
2017-11-05T15:28:32.896Z,38.67
2017-11-05T15:30:59.147Z,31.23
2017-11-05T15:33:25.648Z,31.93
2017-11-05T15:35:51.883Z,27.13
2017-11-05T15:38:18.109Z,27.70
2017-11-05T15:40:44.399Z,48.47
2017-11-05T15:43:10.628Z,34.80
2017-11-05T15:45:36.980Z,39.03
2017-11-05T15:48:03.241Z,33.93
2017-11-05T15:50:29.471Z,19.50
2017-11-05T15:52:55.699Z,34.70
2017-11-05T15:55:21.961Z,19.20
2017-11-05T15:57:48.241Z,23.77
2017-11-05T16:00:14.485Z,22.50
2017-11-05T16:02:40.754Z,22.43
2017-11-05T16:05:06.995Z,22.13
2017-11-05T16:07:33.241Z,26.27
2017-11-05T16:09:59.780Z,38.40
2017-11-05T16:12:26.006Z,43.77
2017-11-05T16:14:52.264Z,33.10
2017-11-05T16:17:18.822Z,32.57
2017-11-05T16:19:44.848Z,40.70
2017-11-05T16:22:11.098Z,58.33
2017-11-05T16:24:37.387Z,35.93
2017-11-05T16:27:03.634Z,52.20
2017-11-05T16:29:29.887Z,40.80
2017-11-05T16:31:56.157Z,30.77
2017-11-05T16:34:22.407Z,59.43
2017-11-05T16:36:48.628Z,34.00
2017-11-05T16:39:14.891Z,45.87
2017-11-05T16:41:41.332Z,67.57
2017-11-05T16:44:07.573Z,34.03
2017-11-05T16:46:33.815Z,40.63
2017-11-05T16:49:00.086Z,41.43
2017-11-05T16:51:26.316Z,42.97
2017-11-05T16:53:52.606Z,53.90
2017-11-05T16:56:18.937Z,28.13
2017-11-05T16:58:45.184Z,104.87
2017-11-05T17:01:11.448Z,27.63
2017-11-05T17:03:37.701Z,23.67
2017-11-05T17:06:03.967Z,40.37
2017-11-05T17:08:30.270Z,21.20
2017-11-05T17:10:56.522Z,26.53
2017-11-05T17:13:22.763Z,23.10
2017-11-05T17:15:49.058Z,18.37
2017-11-05T17:18:15.303Z,28.00
2017-11-05T17:20:41.546Z,22.63
2017-11-05T17:23:07.824Z,48.53
2017-11-05T17:25:34.103Z,34.50
2017-11-05T17:28:00.342Z,49.77
2017-11-05T17:30:26.622Z,95.13
2017-11-05T17:32:52.860Z,39.33
2017-11-05T17:35:19.104Z,66.20
2017-11-05T17:37:45.410Z,32.10
2017-11-05T17:40:11.631Z,43.43
2017-11-05T17:42:37.885Z,35.77
2017-11-05T17:45:04.322Z,50.83
2017-11-05T17:47:30.577Z,48.13
2017-11-05T17:49:56.834Z,31.23
2017-11-05T17:52:23.128Z,49.70
2017-11-05T17:54:49.392Z,55.47
2017-11-05T17:57:15.657Z,44.20
2017-11-05T17:59:41.957Z,41.87
2017-11-05T18:02:08.195Z,30.23
2017-11-05T18:04:34.427Z,35.10
2017-11-05T18:07:00.704Z,39.53
2017-11-05T18:09:26.938Z,33.37
2017-11-05T18:11:53.165Z,37.67
2017-11-05T18:14:19.482Z,36.83
2017-11-05T18:16:45.733Z,27.47
2017-11-05T18:19:12.007Z,29.10
2017-11-05T18:21:38.299Z,30.60
2017-11-05T18:24:04.528Z,32.30
2017-11-05T18:26:30.806Z,32.83
2017-11-05T18:28:57.101Z,26.80
2017-11-05T18:31:23.326Z,31.50
2017-11-05T18:33:49.570Z,28.43
2017-11-05T18:36:15.849Z,46.03
2017-11-05T18:38:42.072Z,35.23
2017-11-05T18:41:08.316Z,30.93
2017-11-05T18:43:34.589Z,32.93
2017-11-05T18:46:00.838Z,37.03
2017-11-05T18:48:27.069Z,25.70
2017-11-05T18:50:53.378Z,33.37
2017-11-05T18:53:19.605Z,41.80
2017-11-05T18:55:45.877Z,29.30
2017-11-05T18:58:12.156Z,43.73
2017-11-05T19:00:38.407Z,36.93
2017-11-05T19:03:04.720Z,28.13
2017-11-05T19:05:31.000Z,75.87
2017-11-05T19:07:57.236Z,43.33
2017-11-05T19:10:23.462Z,38.47
2017-11-05T19:12:49.745Z,37.93
2017-11-05T19:15:15.972Z,33.08
2017-11-05T19:17:42.204Z,36.60
2017-11-05T19:20:08.502Z,39.43
2017-11-05T19:22:34.735Z,24.20
2017-11-05T19:25:00.987Z,31.93
2017-11-05T19:27:27.359Z,37.33
2017-11-05T19:29:53.602Z,30.30
2017-11-05T19:32:19.821Z,28.70
2017-11-05T19:34:46.107Z,30.47
2017-11-05T19:37:12.347Z,38.53
2017-11-05T19:39:38.594Z,29.73
2017-11-05T19:42:04.892Z,32.13
2017-11-05T19:44:31.115Z,29.63
2017-11-05T19:46:57.330Z,35.67
2017-11-05T19:49:23.605Z,32.57
2017-11-05T19:51:49.863Z,29.70
2017-11-05T19:54:16.105Z,62.03
2017-11-05T19:56:42.388Z,61.70
2017-11-05T19:59:08.623Z,45.60
2017-11-05T20:01:34.872Z,40.00
2017-11-05T20:04:01.156Z,35.80
2017-11-05T20:06:27.396Z,43.47
2017-11-05T20:08:53.639Z,42.80
2017-11-05T20:11:19.914Z,43.70
2017-11-05T20:13:46.144Z,35.63
2017-11-05T20:16:12.399Z,80.80
2017-11-05T20:18:38.686Z,37.33
2017-11-05T20:21:04.918Z,33.17
2017-11-05T20:23:31.159Z,31.10
2017-11-05T20:25:57.439Z,32.70
2017-11-05T20:28:23.703Z,37.00
2017-11-05T20:30:49.935Z,27.90
2017-11-05T20:33:16.262Z,40.97
2017-11-05T20:35:42.485Z,26.03
2017-11-05T20:38:08.705Z,31.27
2017-11-05T20:40:34.975Z,23.50
2017-11-05T20:43:01.253Z,34.80
2017-11-05T20:45:27.494Z,36.63
2017-11-05T20:47:53.786Z,27.63
2017-11-05T20:50:20.024Z,32.17
2017-11-05T20:52:46.270Z,22.73
2017-11-05T20:55:12.534Z,27.87
2017-11-05T20:57:38.754Z,30.40
2017-11-05T21:00:05.007Z,25.27
2017-11-05T21:02:31.302Z,34.00
2017-11-05T21:04:57.528Z,32.83
2017-11-05T21:07:23.757Z,28.50
2017-11-05T21:09:50.016Z,28.37
2017-11-05T21:12:16.267Z,23.67
2017-11-05T21:14:42.500Z,36.43
2017-11-05T21:17:08.772Z,23.90
2017-11-05T21:19:35.004Z,33.90
2017-11-05T21:22:01.236Z,33.87
2017-11-05T21:24:27.505Z,34.07
2017-11-05T21:26:53.747Z,37.93
2017-11-05T21:29:19.995Z,45.97
2017-11-05T21:31:46.248Z,41.20
2017-11-05T21:34:12.472Z,43.20
2017-11-05T21:36:38.734Z,41.17
2017-11-05T21:39:05.004Z,34.00
2017-11-05T21:41:31.236Z,44.40
2017-11-05T21:43:57.463Z,37.90
2017-11-05T21:46:23.747Z,40.20
2017-11-05T21:48:49.978Z,48.00
2017-11-05T21:51:16.211Z,55.13
2017-11-05T21:53:42.453Z,61.40
2017-11-05T21:56:08.694Z,55.00
2017-11-05T21:58:34.929Z,60.70
2017-11-05T22:01:01.224Z,74.63
2017-11-05T22:03:27.466Z,52.27
2017-11-05T22:05:53.697Z,36.77
2017-11-05T22:08:20.008Z,43.70
2017-11-05T22:10:46.263Z,42.07
2017-11-05T22:13:12.509Z,41.83
2017-11-05T22:15:38.764Z,40.20
2017-11-05T22:18:05.000Z,31.40
2017-11-05T22:20:31.213Z,33.10
2017-11-05T22:22:57.485Z,30.30
2017-11-05T22:25:23.751Z,30.83
2017-11-05T22:27:49.983Z,35.13
2017-11-05T22:30:16.256Z,30.77
2017-11-05T22:32:42.496Z,25.97
2017-11-05T22:35:08.776Z,30.03
2017-11-05T22:37:35.079Z,38.03
2017-11-05T22:40:01.313Z,28.07
2017-11-05T22:42:27.611Z,30.83
2017-11-05T22:44:53.901Z,35.35
2017-11-05T22:47:20.143Z,35.87
2017-11-05T22:49:46.396Z,42.00
2017-11-05T22:52:12.688Z,41.03
2017-11-05T22:54:38.902Z,37.63
2017-11-05T22:57:05.122Z,32.70
2017-11-05T22:59:31.404Z,28.93
2017-11-05T23:01:57.629Z,32.93
2017-11-05T23:04:23.879Z,38.10
2017-11-05T23:06:50.162Z,30.70
2017-11-05T23:09:16.384Z,40.80
2017-11-05T23:11:42.660Z,34.77
2017-11-05T23:14:08.918Z,33.67
2017-11-05T23:16:35.136Z,40.27
2017-11-05T23:19:01.361Z,34.07
2017-11-05T23:21:27.624Z,38.13
2017-11-05T23:23:53.872Z,44.53
2017-11-05T23:26:20.100Z,42.60
2017-11-05T23:28:46.362Z,40.93
2017-11-05T23:31:12.593Z,43.70
2017-11-05T23:33:38.818Z,37.03
2017-11-05T23:36:05.103Z,31.50
2017-11-05T23:38:31.305Z,37.77
2017-11-05T23:40:57.555Z,32.83
2017-11-05T23:43:23.820Z,37.80
2017-11-05T23:45:50.057Z,31.20
2017-11-05T23:48:16.267Z,33.03
2017-11-05T23:50:42.556Z,25.40
2017-11-05T23:53:08.798Z,29.00
2017-11-05T23:55:35.016Z,31.40
2017-11-05T23:58:01.315Z,34.20
